sensor_id;sensor_type;location;lat;lon;timestamp;pressure;altitude;pressure_sealevel;temperature;humidity
51083;BME280;37131;42.694;23.350;2023-04-22T00:01:11;95177.59;;;8.05;99.15
51083;BME280;37131;42.694;23.350;2023-04-22T00:03:36;95185.84;;;7.96;100.00
51083;BME280;37131;42.694;23.350;2023-04-22T00:06:03;95182.66;;;7.94;100.00
51083;BME280;37131;42.694;23.350;2023-04-22T00:08:28;95180.72;;;7.89;100.00
51083;BME280;37131;42.694;23.350;2023-04-22T00:10:54;95177.34;;;7.82;100.00
51083;BME280;37131;42.694;23.350;2023-04-22T00:13:20;95184.34;;;7.81;100.00
51083;BME280;37131;42.694;23.350;2023-04-22T00:15:45;95176.78;;;7.80;100.00
51083;BME280;37131;42.694;23.350;2023-04-22T00:18:11;95180.78;;;7.76;100.00
51083;BME280;37131;42.694;23.350;2023-04-22T00:20:38;95182.59;;;7.68;100.00
51083;BME280;37131;42.694;23.350;2023-04-22T00:23:04;95178.41;;;7.67;100.00
51083;BME280;37131;42.694;23.350;2023-04-22T00:25:29;95176.00;;;7.72;100.00
51083;BME280;37131;42.694;23.350;2023-04-22T00:27:55;95178.81;;;7.64;100.00
51083;BME280;37131;42.694;23.350;2023-04-22T00:30:20;95190.22;;;7.63;100.00
51083;BME280;37131;42.694;23.350;2023-04-22T00:32:45;95186.41;;;7.66;100.00
51083;BME280;37131;42.694;23.350;2023-04-22T00:35:10;95187.78;;;7.68;100.00
51083;BME280;37131;42.694;23.350;2023-04-22T00:37:36;95181.00;;;7.67;100.00
51083;BME280;37131;42.694;23.350;2023-04-22T00:40:01;95192.78;;;7.70;100.00
51083;BME280;37131;42.694;23.350;2023-04-22T00:42:27;95194.84;;;7.54;100.00
51083;BME280;37131;42.694;23.350;2023-04-22T00:44:52;95192.00;;;7.63;100.00
51083;BME280;37131;42.694;23.350;2023-04-22T00:47:17;95197.59;;;7.60;100.00
51083;BME280;37131;42.694;23.350;2023-04-22T00:49:43;95193.59;;;7.64;100.00
51083;BME280;37131;42.694;23.350;2023-04-22T00:52:08;95199.88;;;7.43;100.00
51083;BME280;37131;42.694;23.350;2023-04-22T00:54:34;95199.28;;;7.41;100.00
51083;BME280;37131;42.694;23.350;2023-04-22T00:56:59;95194.75;;;7.29;100.00
51083;BME280;37131;42.694;23.350;2023-04-22T00:59:24;95195.94;;;7.20;100.00
51083;BME280;37131;42.694;23.350;2023-04-22T01:01:50;95205.94;;;7.16;100.00
51083;BME280;37131;42.694;23.350;2023-04-22T01:04:16;95200.78;;;7.03;100.00
51083;BME280;37131;42.694;23.350;2023-04-22T01:06:42;95197.59;;;6.94;100.00
51083;BME280;37131;42.694;23.350;2023-04-22T01:09:08;95200.59;;;6.84;100.00
51083;BME280;37131;42.694;23.350;2023-04-22T01:11:36;95204.00;;;6.72;100.00
51083;BME280;37131;42.694;23.350;2023-04-22T01:14:02;95199.41;;;6.67;100.00
51083;BME280;37131;42.694;23.350;2023-04-22T01:16:28;95204.19;;;6.57;100.00
51083;BME280;37131;42.694;23.350;2023-04-22T01:18:53;95204.00;;;6.58;100.00
51083;BME280;37131;42.694;23.350;2023-04-22T01:21:18;95205.00;;;6.44;100.00
51083;BME280;37131;42.694;23.350;2023-04-22T01:23:44;95199.22;;;6.42;100.00
51083;BME280;37131;42.694;23.350;2023-04-22T01:26:09;95194.84;;;6.49;100.00
51083;BME280;37131;42.694;23.350;2023-04-22T01:28:35;95202.81;;;6.47;100.00
51083;BME280;37131;42.694;23.350;2023-04-22T01:31:00;95200.03;;;6.42;100.00
51083;BME280;37131;42.694;23.350;2023-04-22T01:33:26;95195.63;;;6.49;100.00
51083;BME280;37131;42.694;23.350;2023-04-22T01:35:51;95203.81;;;6.60;100.00
51083;BME280;37131;42.694;23.350;2023-04-22T01:38:16;95192.06;;;6.50;100.00
51083;BME280;37131;42.694;23.350;2023-04-22T01:40:42;95194.66;;;6.50;100.00
51083;BME280;37131;42.694;23.350;2023-04-22T01:43:07;95193.84;;;6.50;100.00
51083;BME280;37131;42.694;23.350;2023-04-22T01:45:32;95192.88;;;6.51;100.00
51083;BME280;37131;42.694;23.350;2023-04-22T01:47:58;95193.84;;;6.57;100.00
51083;BME280;37131;42.694;23.350;2023-04-22T01:50:23;95196.66;;;6.62;100.00
51083;BME280;37131;42.694;23.350;2023-04-22T01:52:48;95196.25;;;6.65;100.00
51083;BME280;37131;42.694;23.350;2023-04-22T01:55:14;95186.06;;;6.70;100.00
51083;BME280;37131;42.694;23.350;2023-04-22T01:57:40;95187.88;;;6.76;100.00
51083;BME280;37131;42.694;23.350;2023-04-22T02:00:06;95186.06;;;6.77;100.00
51083;BME280;37131;42.694;23.350;2023-04-22T02:02:32;95196.22;;;6.78;100.00
51083;BME280;37131;42.694;23.350;2023-04-22T02:04:57;95186.25;;;6.82;100.00
51083;BME280;37131;42.694;23.350;2023-04-22T02:07:23;95188.84;;;6.89;100.00
51083;BME280;37131;42.694;23.350;2023-04-22T02:09:48;95187.84;;;6.90;100.00
51083;BME280;37131;42.694;23.350;2023-04-22T02:12:14;95197.00;;;6.99;100.00
51083;BME280;37131;42.694;23.350;2023-04-22T02:14:39;95199.75;;;7.11;100.00
51083;BME280;37131;42.694;23.350;2023-04-22T02:17:04;95199.75;;;7.04;100.00
51083;BME280;37131;42.694;23.350;2023-04-22T02:19:29;95200.16;;;7.01;100.00
51083;BME280;37131;42.694;23.350;2023-04-22T02:21:55;95193.63;;;6.92;100.00
51083;BME280;37131;42.694;23.350;2023-04-22T02:24:20;95199.00;;;6.97;100.00
51083;BME280;37131;42.694;23.350;2023-04-22T02:26:45;95192.44;;;6.94;100.00
51083;BME280;37131;42.694;23.350;2023-04-22T02:29:11;95189.84;;;6.94;100.00
51083;BME280;37131;42.694;23.350;2023-04-22T02:31:36;95191.59;;;6.94;100.00
51083;BME280;37131;42.694;23.350;2023-04-22T02:34:02;95195.19;;;6.99;100.00
51083;BME280;37131;42.694;23.350;2023-04-22T02:36:27;95199.38;;;7.00;100.00
51083;BME280;37131;42.694;23.350;2023-04-22T02:38:52;95194.81;;;6.96;100.00
51083;BME280;37131;42.694;23.350;2023-04-22T02:41:18;95197.19;;;6.97;100.00
51083;BME280;37131;42.694;23.350;2023-04-22T02:43:43;95202.38;;;6.97;100.00
51083;BME280;37131;42.694;23.350;2023-04-22T02:46:11;95205.97;;;6.96;100.00
51083;BME280;37131;42.694;23.350;2023-04-22T02:48:37;95195.81;;;6.88;100.00
51083;BME280;37131;42.694;23.350;2023-04-22T02:51:02;95203.59;;;6.88;100.00
51083;BME280;37131;42.694;23.350;2023-04-22T02:53:27;95200.41;;;6.93;100.00
51083;BME280;37131;42.694;23.350;2023-04-22T02:55:52;95203.56;;;6.95;100.00
51083;BME280;37131;42.694;23.350;2023-04-22T02:58:19;95201.19;;;6.93;100.00
51083;BME280;37131;42.694;23.350;2023-04-22T03:00:44;95204.38;;;7.02;100.00
51083;BME280;37131;42.694;23.350;2023-04-22T03:03:10;95201.78;;;7.02;100.00
51083;BME280;37131;42.694;23.350;2023-04-22T03:05:35;95205.56;;;6.99;100.00
51083;BME280;37131;42.694;23.350;2023-04-22T03:08:01;95202.38;;;6.91;100.00
51083;BME280;37131;42.694;23.350;2023-04-22T03:10:26;95201.97;;;6.94;100.00
51083;BME280;37131;42.694;23.350;2023-04-22T03:12:51;95206.78;;;6.83;100.00
51083;BME280;37131;42.694;23.350;2023-04-22T03:15:16;95208.78;;;6.81;100.00
51083;BME280;37131;42.694;23.350;2023-04-22T03:17:41;95211.56;;;6.80;100.00
51083;BME280;37131;42.694;23.350;2023-04-22T03:20:07;95208.81;;;6.75;100.00
51083;BME280;37131;42.694;23.350;2023-04-22T03:22:33;95214.34;;;6.72;100.00
51083;BME280;37131;42.694;23.350;2023-04-22T03:24:58;95219.94;;;6.68;100.00
51083;BME280;37131;42.694;23.350;2023-04-22T03:27:23;95220.34;;;6.72;100.00
51083;BME280;37131;42.694;23.350;2023-04-22T03:29:48;95220.75;;;6.69;100.00
51083;BME280;37131;42.694;23.350;2023-04-22T03:32:14;95227.13;;;6.66;100.00
51083;BME280;37131;42.694;23.350;2023-04-22T03:34:39;95229.91;;;6.65;100.00
51083;BME280;37131;42.694;23.350;2023-04-22T03:37:04;95222.75;;;6.74;100.00
51083;BME280;37131;42.694;23.350;2023-04-22T03:39:29;95231.13;;;6.82;100.00
51083;BME280;37131;42.694;23.350;2023-04-22T03:41:55;95233.50;;;6.64;100.00
51083;BME280;37131;42.694;23.350;2023-04-22T03:44:20;95237.47;;;6.46;100.00
51083;BME280;37131;42.694;23.350;2023-04-22T03:46:45;95238.66;;;6.37;100.00
51083;BME280;37131;42.694;23.350;2023-04-22T03:49:11;95244.63;;;6.31;100.00
51083;BME280;37131;42.694;23.350;2023-04-22T03:51:36;95239.44;;;6.24;100.00
51083;BME280;37131;42.694;23.350;2023-04-22T03:54:01;95241.25;;;6.37;100.00
51083;BME280;37131;42.694;23.350;2023-04-22T03:56:26;95239.84;;;6.28;100.00
51083;BME280;37131;42.694;23.350;2023-04-22T03:58:52;95243.03;;;6.30;100.00
51083;BME280;37131;42.694;23.350;2023-04-22T04:01:17;95248.81;;;6.25;100.00
51083;BME280;37131;42.694;23.350;2023-04-22T04:03:42;95245.22;;;6.13;100.00
51083;BME280;37131;42.694;23.350;2023-04-22T04:06:07;95252.78;;;6.14;100.00
51083;BME280;37131;42.694;23.350;2023-04-22T04:08:33;95256.19;;;6.22;100.00
51083;BME280;37131;42.694;23.350;2023-04-22T04:10:58;95248.03;;;6.25;100.00
51083;BME280;37131;42.694;23.350;2023-04-22T04:13:23;95253.19;;;6.25;100.00
51083;BME280;37131;42.694;23.350;2023-04-22T04:15:49;95254.41;;;6.29;100.00
51083;BME280;37131;42.694;23.350;2023-04-22T04:18:14;95253.00;;;6.26;100.00
51083;BME280;37131;42.694;23.350;2023-04-22T04:20:39;95256.19;;;6.28;100.00
51083;BME280;37131;42.694;23.350;2023-04-22T04:23:05;95255.97;;;6.30;100.00
51083;BME280;37131;42.694;23.350;2023-04-22T04:25:30;95259.19;;;6.32;100.00
51083;BME280;37131;42.694;23.350;2023-04-22T04:28:06;95260.56;;;6.35;100.00
51083;BME280;37131;42.694;23.350;2023-04-22T04:30:35;95265.34;;;6.38;100.00
51083;BME280;37131;42.694;23.350;2023-04-22T04:33:00;95270.34;;;6.46;100.00
51083;BME280;37131;42.694;23.350;2023-04-22T04:35:31;95270.16;;;6.61;100.00
51083;BME280;37131;42.694;23.350;2023-04-22T04:37:58;95272.34;;;6.64;100.00
51083;BME280;37131;42.694;23.350;2023-04-22T04:40:24;95277.75;;;6.69;100.00
51083;BME280;37131;42.694;23.350;2023-04-22T04:42:49;95276.56;;;6.78;100.00
51083;BME280;37131;42.694;23.350;2023-04-22T04:45:17;95279.34;;;6.77;100.00
51083;BME280;37131;42.694;23.350;2023-04-22T04:47:43;95277.56;;;6.84;100.00
51083;BME280;37131;42.694;23.350;2023-04-22T04:50:09;95283.53;;;6.91;100.00
51083;BME280;37131;42.694;23.350;2023-04-22T04:52:34;95286.31;;;6.96;100.00
51083;BME280;37131;42.694;23.350;2023-04-22T04:55:00;95288.31;;;6.94;98.97
51083;BME280;37131;42.694;23.350;2023-04-22T04:57:25;95290.72;;;6.96;99.20
51083;BME280;37131;42.694;23.350;2023-04-22T04:59:50;95293.50;;;6.94;98.62
51083;BME280;37131;42.694;23.350;2023-04-22T05:02:15;95292.09;;;6.78;98.81
51083;BME280;37131;42.694;23.350;2023-04-22T05:04:41;95298.06;;;6.79;100.00
51083;BME280;37131;42.694;23.350;2023-04-22T05:07:06;95295.09;;;6.82;98.99
51083;BME280;37131;42.694;23.350;2023-04-22T05:09:31;95293.13;;;6.84;98.56
51083;BME280;37131;42.694;23.350;2023-04-22T05:12:01;95294.91;;;6.90;98.98
51083;BME280;37131;42.694;23.350;2023-04-22T05:14:29;95299.69;;;6.93;100.00
51083;BME280;37131;42.694;23.350;2023-04-22T05:16:54;95260.63;;;6.75;100.00
51083;BME280;37131;42.694;23.350;2023-04-22T05:19:19;95298.88;;;7.13;98.93
51083;BME280;37131;42.694;23.350;2023-04-22T05:21:45;95305.66;;;7.20;97.28
51083;BME280;37131;42.694;23.350;2023-04-22T05:24:10;95305.03;;;7.32;96.49
51083;BME280;37131;42.694;23.350;2023-04-22T05:26:35;95300.66;;;7.39;96.44
51083;BME280;37131;42.694;23.350;2023-04-22T05:29:01;95297.44;;;7.50;95.44
51083;BME280;37131;42.694;23.350;2023-04-22T05:31:26;95301.00;;;7.69;94.33
51083;BME280;37131;42.694;23.350;2023-04-22T05:33:53;95306.34;;;7.75;93.75
51083;BME280;37131;42.694;23.350;2023-04-22T05:36:18;95306.09;;;7.89;94.03
51083;BME280;37131;42.694;23.350;2023-04-22T05:38:43;95302.88;;;8.01;94.10
51083;BME280;37131;42.694;23.350;2023-04-22T05:41:08;95304.69;;;7.94;93.16
51083;BME280;37131;42.694;23.350;2023-04-22T05:43:34;95303.91;;;7.93;93.78
51083;BME280;37131;42.694;23.350;2023-04-22T05:45:59;95305.25;;;8.09;93.78
51083;BME280;37131;42.694;23.350;2023-04-22T05:48:24;95300.13;;;8.34;91.53
51083;BME280;37131;42.694;23.350;2023-04-22T05:50:49;95302.94;;;8.26;91.22
51083;BME280;37131;42.694;23.350;2023-04-22T05:53:15;95302.94;;;8.26;92.13
51083;BME280;37131;42.694;23.350;2023-04-22T05:55:40;95306.94;;;8.29;93.48
51083;BME280;37131;42.694;23.350;2023-04-22T05:58:05;95296.09;;;8.45;90.97
51083;BME280;37131;42.694;23.350;2023-04-22T06:00:31;95296.38;;;8.62;91.41
51083;BME280;37131;42.694;23.350;2023-04-22T06:02:56;95297.31;;;8.74;90.59
51083;BME280;37131;42.694;23.350;2023-04-22T06:05:21;95299.03;;;8.87;90.24
51083;BME280;37131;42.694;23.350;2023-04-22T06:07:46;95293.84;;;9.06;91.33
51083;BME280;37131;42.694;23.350;2023-04-22T06:10:11;95290.69;;;9.04;88.45
51083;BME280;37131;42.694;23.350;2023-04-22T06:12:37;95295.19;;;9.15;86.46
51083;BME280;37131;42.694;23.350;2023-04-22T06:15:02;95296.22;;;9.33;84.33
51083;BME280;37131;42.694;23.350;2023-04-22T06:17:28;95286.69;;;9.26;84.15
51083;BME280;37131;42.694;23.350;2023-04-22T06:19:53;95288.28;;;9.46;84.71
51083;BME280;37131;42.694;23.350;2023-04-22T06:22:18;95293.88;;;9.68;84.18
51083;BME280;37131;42.694;23.350;2023-04-22T06:24:44;95294.59;;;9.57;82.67
51083;BME280;37131;42.694;23.350;2023-04-22T06:27:09;95288.72;;;9.80;83.67
51083;BME280;37131;42.694;23.350;2023-04-22T06:29:34;95299.47;;;9.72;82.46
51083;BME280;37131;42.694;23.350;2023-04-22T06:31:59;95294.38;;;9.77;83.27
51083;BME280;37131;42.694;23.350;2023-04-22T06:34:25;95298.09;;;9.88;81.23
51083;BME280;37131;42.694;23.350;2023-04-22T06:36:50;95299.59;;;9.95;81.44
51083;BME280;37131;42.694;23.350;2023-04-22T06:39:17;95295.53;;;9.99;82.30
51083;BME280;37131;42.694;23.350;2023-04-22T06:41:42;95298.94;;;10.00;82.30
51083;BME280;37131;42.694;23.350;2023-04-22T06:44:08;95293.56;;;9.95;81.82
51083;BME280;37131;42.694;23.350;2023-04-22T06:46:33;95297.63;;;10.09;81.36
51083;BME280;37131;42.694;23.350;2023-04-22T06:48:59;95293.06;;;10.23;81.09
51083;BME280;37131;42.694;23.350;2023-04-22T06:51:24;95292.22;;;10.41;81.74
51083;BME280;37131;42.694;23.350;2023-04-22T06:53:49;95291.34;;;10.47;80.75
51083;BME280;37131;42.694;23.350;2023-04-22T06:56:15;95290.13;;;10.50;80.53
51083;BME280;37131;42.694;23.350;2023-04-22T06:58:40;95295.81;;;10.59;79.96
51083;BME280;37131;42.694;23.350;2023-04-22T07:01:05;95297.53;;;10.77;80.28
51083;BME280;37131;42.694;23.350;2023-04-22T07:03:30;95305.94;;;10.79;79.21
51083;BME280;37131;42.694;23.350;2023-04-22T07:05:56;95300.97;;;11.01;79.16
51083;BME280;37131;42.694;23.350;2023-04-22T07:08:21;95298.97;;;11.15;80.32
51083;BME280;37131;42.694;23.350;2023-04-22T07:10:46;95294.31;;;11.05;79.22
51083;BME280;37131;42.694;23.350;2023-04-22T07:13:11;95304.94;;;10.92;78.92
51083;BME280;37131;42.694;23.350;2023-04-22T07:15:37;95302.34;;;10.92;79.13
51083;BME280;37131;42.694;23.350;2023-04-22T07:18:02;95301.59;;;10.61;78.92
51083;BME280;37131;42.694;23.350;2023-04-22T07:20:27;95299.84;;;10.97;78.66
51083;BME280;37131;42.694;23.350;2023-04-22T07:22:53;95292.50;;;11.17;77.75
51083;BME280;37131;42.694;23.350;2023-04-22T07:25:18;95300.91;;;11.31;78.98
51083;BME280;37131;42.694;23.350;2023-04-22T07:27:43;95296.25;;;11.45;79.01
51083;BME280;37131;42.694;23.350;2023-04-22T07:30:10;95297.47;;;11.54;76.38
51083;BME280;37131;42.694;23.350;2023-04-22T07:32:35;95296.25;;;11.33;76.76
51083;BME280;37131;42.694;23.350;2023-04-22T07:35:01;95294.19;;;11.59;77.74
51083;BME280;37131;42.694;23.350;2023-04-22T07:37:26;95290.66;;;11.77;77.05
51083;BME280;37131;42.694;23.350;2023-04-22T07:39:51;95294.19;;;11.95;76.86
51083;BME280;37131;42.694;23.350;2023-04-22T07:42:16;95298.66;;;12.11;73.10
51083;BME280;37131;42.694;23.350;2023-04-22T07:44:42;95299.19;;;12.25;70.78
51083;BME280;37131;42.694;23.350;2023-04-22T07:47:07;95295.63;;;12.02;71.68
51083;BME280;37131;42.694;23.350;2023-04-22T07:49:32;95295.31;;;12.27;72.12
51083;BME280;37131;42.694;23.350;2023-04-22T07:51:58;95291.53;;;12.35;71.41
51083;BME280;37131;42.694;23.350;2023-04-22T07:54:23;95287.31;;;12.63;72.56
51083;BME280;37131;42.694;23.350;2023-04-22T07:56:48;95295.63;;;12.60;69.35
51083;BME280;37131;42.694;23.350;2023-04-22T07:59:14;95291.53;;;12.81;67.36
51083;BME280;37131;42.694;23.350;2023-04-22T08:01:39;95294.56;;;12.90;66.29
51083;BME280;37131;42.694;23.350;2023-04-22T08:04:04;95284.66;;;12.92;65.82
51083;BME280;37131;42.694;23.350;2023-04-22T08:06:29;95291.25;;;13.11;63.31
51083;BME280;37131;42.694;23.350;2023-04-22T08:08:55;95282.28;;;13.24;63.65
51083;BME280;37131;42.694;23.350;2023-04-22T08:11:21;95278.13;;;13.28;59.30
51083;BME280;37131;42.694;23.350;2023-04-22T08:13:46;95272.09;;;13.45;58.59
51083;BME280;37131;42.694;23.350;2023-04-22T08:16:11;95273.03;;;13.56;57.48
51083;BME280;37131;42.694;23.350;2023-04-22T08:18:36;95271.34;;;13.66;55.73
51083;BME280;37131;42.694;23.350;2023-04-22T08:21:02;95264.84;;;13.69;57.99
51083;BME280;37131;42.694;23.350;2023-04-22T08:23:27;95271.09;;;13.68;60.05
51083;BME280;37131;42.694;23.350;2023-04-22T08:25:52;95266.44;;;13.53;57.98
51083;BME280;37131;42.694;23.350;2023-04-22T08:28:18;95265.94;;;13.73;57.24
51083;BME280;37131;42.694;23.350;2023-04-22T08:30:43;95270.94;;;13.97;55.45
51083;BME280;37131;42.694;23.350;2023-04-22T08:33:08;95262.09;;;14.03;55.18
51083;BME280;37131;42.694;23.350;2023-04-22T08:35:34;95258.19;;;14.06;53.33
51083;BME280;37131;42.694;23.350;2023-04-22T08:38:00;95251.59;;;14.03;53.55
51083;BME280;37131;42.694;23.350;2023-04-22T08:40:26;95253.66;;;14.01;55.50
51083;BME280;37131;42.694;23.350;2023-04-22T08:42:51;95239.50;;;14.24;55.13
51083;BME280;37131;42.694;23.350;2023-04-22T08:45:17;95242.00;;;14.14;53.90
51083;BME280;37131;42.694;23.350;2023-04-22T08:47:42;95245.25;;;14.21;52.74
51083;BME280;37131;42.694;23.350;2023-04-22T08:50:08;95243.03;;;14.13;52.13
51083;BME280;37131;42.694;23.350;2023-04-22T08:52:33;95238.13;;;14.16;55.06
51083;BME280;37131;42.694;23.350;2023-04-22T08:54:59;95232.47;;;14.30;52.89
51083;BME280;37131;42.694;23.350;2023-04-22T08:57:24;95230.94;;;14.61;51.12
51083;BME280;37131;42.694;23.350;2023-04-22T08:59:50;95232.97;;;14.81;53.24
51083;BME280;37131;42.694;23.350;2023-04-22T09:02:18;95237.56;;;14.42;50.61
51083;BME280;37131;42.694;23.350;2023-04-22T09:04:45;95234.53;;;14.55;51.94
51083;BME280;37131;42.694;23.350;2023-04-22T09:07:11;95228.03;;;14.90;52.74
51083;BME280;37131;42.694;23.350;2023-04-22T09:09:39;95225.50;;;15.00;51.27
51083;BME280;37131;42.694;23.350;2023-04-22T09:12:05;95234.44;;;15.04;49.87
51083;BME280;37131;42.694;23.350;2023-04-22T09:14:31;95226.25;;;14.96;48.09
51083;BME280;37131;42.694;23.350;2023-04-22T09:16:57;95225.13;;;15.24;49.33
51083;BME280;37131;42.694;23.350;2023-04-22T09:19:23;95216.00;;;15.42;49.08
51083;BME280;37131;42.694;23.350;2023-04-22T09:21:49;95214.16;;;15.37;48.23
51083;BME280;37131;42.694;23.350;2023-04-22T09:24:15;95226.72;;;15.78;47.66
51083;BME280;37131;42.694;23.350;2023-04-22T09:26:41;95218.38;;;16.02;45.76
51083;BME280;37131;42.694;23.350;2023-04-22T09:29:06;95204.50;;;16.22;45.27
51083;BME280;37131;42.694;23.350;2023-04-22T09:31:33;95204.50;;;16.17;44.53
51083;BME280;37131;42.694;23.350;2023-04-22T09:33:59;95196.91;;;16.51;45.17
51083;BME280;37131;42.694;23.350;2023-04-22T09:36:28;95199.00;;;16.64;46.11
51083;BME280;37131;42.694;23.350;2023-04-22T09:38:57;95186.91;;;17.05;46.22
51083;BME280;37131;42.694;23.350;2023-04-22T09:41:33;95196.06;;;17.38;44.88
51083;BME280;37131;42.694;23.350;2023-04-22T09:43:59;95191.81;;;17.42;44.44
51083;BME280;37131;42.694;23.350;2023-04-22T09:46:25;95192.03;;;17.56;44.07
51083;BME280;37131;42.694;23.350;2023-04-22T09:48:52;95197.84;;;17.48;43.69
51083;BME280;37131;42.694;23.350;2023-04-22T09:51:18;95203.16;;;17.43;42.94
51083;BME280;37131;42.694;23.350;2023-04-22T09:53:44;95205.31;;;17.20;45.74
51083;BME280;37131;42.694;23.350;2023-04-22T09:56:10;95227.94;;;16.44;43.30
51083;BME280;37131;42.694;23.350;2023-04-22T09:58:39;95221.56;;;16.04;44.40
51083;BME280;37131;42.694;23.350;2023-04-22T10:01:04;95224.88;;;15.78;44.53
51083;BME280;37131;42.694;23.350;2023-04-22T10:03:29;95222.13;;;15.58;44.99
51083;BME280;37131;42.694;23.350;2023-04-22T10:05:55;95215.03;;;15.53;45.25
51083;BME280;37131;42.694;23.350;2023-04-22T10:08:20;95219.13;;;15.87;45.81
51083;BME280;37131;42.694;23.350;2023-04-22T10:10:46;95215.22;;;16.00;44.05
51083;BME280;37131;42.694;23.350;2023-04-22T10:13:11;95213.72;;;16.35;46.38
51083;BME280;37131;42.694;23.350;2023-04-22T10:18:02;95209.56;;;15.65;45.83
51083;BME280;37131;42.694;23.350;2023-04-22T10:20:28;95210.91;;;15.25;44.09
51083;BME280;37131;42.694;23.350;2023-04-22T10:22:55;95204.88;;;15.24;44.13
51083;BME280;37131;42.694;23.350;2023-04-22T10:25:21;95203.09;;;15.30;44.12
51083;BME280;37131;42.694;23.350;2023-04-22T10:27:53;95197.34;;;15.38;42.31
51083;BME280;37131;42.694;23.350;2023-04-22T10:30:26;95191.84;;;15.45;41.56
51083;BME280;37131;42.694;23.350;2023-04-22T10:32:52;95192.53;;;15.20;42.22
51083;BME280;37131;42.694;23.350;2023-04-22T10:35:17;95181.34;;;15.45;42.44
51083;BME280;37131;42.694;23.350;2023-04-22T10:37:51;95183.03;;;15.67;42.32
51083;BME280;37131;42.694;23.350;2023-04-22T10:40:16;95182.13;;;16.14;39.88
51083;BME280;37131;42.694;23.350;2023-04-22T10:42:45;95176.09;;;16.39;39.69
51083;BME280;37131;42.694;23.350;2023-04-22T10:45:12;95172.66;;;16.70;41.45
51083;BME280;37131;42.694;23.350;2023-04-22T10:47:38;95164.50;;;17.02;40.60
51083;BME280;37131;42.694;23.350;2023-04-22T10:52:40;95167.28;;;17.47;38.85
51083;BME280;37131;42.694;23.350;2023-04-22T10:55:06;95164.03;;;17.70;39.34
51083;BME280;37131;42.694;23.350;2023-04-22T10:57:32;95151.41;;;17.67;37.81
51083;BME280;37131;42.694;23.350;2023-04-22T11:00:14;95160.31;;;17.01;36.92
51083;BME280;37131;42.694;23.350;2023-04-22T11:02:40;95155.72;;;17.38;37.22
51083;BME280;37131;42.694;23.350;2023-04-22T11:05:21;95162.00;;;17.57;36.50
51083;BME280;37131;42.694;23.350;2023-04-22T11:07:47;95167.75;;;17.64;37.29
51083;BME280;37131;42.694;23.350;2023-04-22T11:10:29;95162.53;;;17.54;38.07
51083;BME280;37131;42.694;23.350;2023-04-22T11:12:54;95177.94;;;16.54;37.93
51083;BME280;37131;42.694;23.350;2023-04-22T11:15:19;95175.84;;;16.66;40.49
51083;BME280;37131;42.694;23.350;2023-04-22T11:17:48;95178.47;;;16.72;41.80
51083;BME280;37131;42.694;23.350;2023-04-22T11:20:14;95186.09;;;16.27;43.63
51083;BME280;37131;42.694;23.350;2023-04-22T11:22:46;95188.66;;;15.96;45.00
51083;BME280;37131;42.694;23.350;2023-04-22T11:25:11;95196.06;;;16.09;46.37
51083;BME280;37131;42.694;23.350;2023-04-22T11:27:37;95199.16;;;15.91;46.82
51083;BME280;37131;42.694;23.350;2023-04-22T11:32:28;95206.91;;;16.39;46.35
51083;BME280;37131;42.694;23.350;2023-04-22T11:34:53;95208.22;;;16.46;46.35
51083;BME280;37131;42.694;23.350;2023-04-22T11:37:19;95203.72;;;16.47;46.62
51083;BME280;37131;42.694;23.350;2023-04-22T11:39:44;95197.16;;;16.75;45.74
51083;BME280;37131;42.694;23.350;2023-04-22T11:42:11;95203.78;;;16.88;44.94
51083;BME280;37131;42.694;23.350;2023-04-22T11:44:37;95204.53;;;16.58;44.17
51083;BME280;37131;42.694;23.350;2023-04-22T11:47:02;95210.31;;;16.44;44.70
51083;BME280;37131;42.694;23.350;2023-04-22T11:49:28;95216.09;;;16.52;45.44
51083;BME280;37131;42.694;23.350;2023-04-22T11:51:56;95216.38;;;16.45;45.43
51083;BME280;37131;42.694;23.350;2023-04-22T11:54:35;95219.56;;;16.62;45.36
51083;BME280;37131;42.694;23.350;2023-04-22T11:57:01;95223.72;;;16.38;45.80
51083;BME280;37131;42.694;23.350;2023-04-22T11:59:27;95225.06;;;16.56;44.75
51083;BME280;37131;42.694;23.350;2023-04-22T12:01:52;95224.22;;;16.24;45.85
51083;BME280;37131;42.694;23.350;2023-04-22T12:04:21;95219.00;;;16.40;44.99
51083;BME280;37131;42.694;23.350;2023-04-22T12:06:46;95234.22;;;16.22;43.83
51083;BME280;37131;42.694;23.350;2023-04-22T12:09:11;95226.91;;;16.45;44.92
51083;BME280;37131;42.694;23.350;2023-04-22T12:11:37;95228.50;;;16.61;43.71
51083;BME280;37131;42.694;23.350;2023-04-22T12:14:05;95228.75;;;16.75;43.01
51083;BME280;37131;42.694;23.350;2023-04-22T12:16:40;95235.06;;;16.69;43.72
51083;BME280;37131;42.694;23.350;2023-04-22T12:19:05;95220.09;;;17.06;43.34
51083;BME280;37131;42.694;23.350;2023-04-22T12:21:31;95214.72;;;17.57;41.88
51083;BME280;37131;42.694;23.350;2023-04-22T12:24:00;95216.00;;;17.60;42.55
51083;BME280;37131;42.694;23.350;2023-04-22T12:26:29;95207.63;;;18.13;41.27
51083;BME280;37131;42.694;23.350;2023-04-22T12:28:55;95214.03;;;17.96;41.19
51083;BME280;37131;42.694;23.350;2023-04-22T12:31:20;95221.88;;;17.31;42.41
51083;BME280;37131;42.694;23.350;2023-04-22T12:33:46;95224.97;;;17.59;42.51
51083;BME280;37131;42.694;23.350;2023-04-22T12:36:12;95217.78;;;18.40;41.64
51083;BME280;37131;42.694;23.350;2023-04-22T12:38:37;95216.38;;;18.48;40.96
51083;BME280;37131;42.694;23.350;2023-04-22T12:41:03;95221.19;;;18.40;42.11
51083;BME280;37131;42.694;23.350;2023-04-22T12:43:29;95205.66;;;18.34;42.61
51083;BME280;37131;42.694;23.350;2023-04-22T12:45:56;95212.16;;;18.47;40.78
51083;BME280;37131;42.694;23.350;2023-04-22T12:48:21;95201.69;;;17.86;43.13
51083;BME280;37131;42.694;23.350;2023-04-22T12:50:46;95199.44;;;18.14;44.98